sensor_id;sensor_type;location;lat;lon;timestamp;pressure;altitude;pressure_sealevel;temperature;humidity
21980;BME280;11154;48.558;9.234;2023-06-05T00:01:33;97556.97;;;18.05;65.42
21980;BME280;11154;48.558;9.234;2023-06-05T00:03:35;97545.13;;;18.06;65.75
21980;BME280;11154;48.558;9.234;2023-06-05T00:05:37;97552.63;;;18.04;65.54
21980;BME280;11154;48.558;9.234;2023-06-05T00:07:39;97549.72;;;17.99;66.00
21980;BME280;11154;48.558;9.234;2023-06-05T00:09:41;97551.56;;;17.98;66.54
21980;BME280;11154;48.558;9.234;2023-06-05T00:11:43;97544.94;;;17.94;66.73
21980;BME280;11154;48.558;9.234;2023-06-05T00:13:46;97548.25;;;17.90;66.29
21980;BME280;11154;48.558;9.234;2023-06-05T00:15:47;97553.63;;;17.90;66.53
21980;BME280;11154;48.558;9.234;2023-06-05T00:17:50;97551.34;;;17.87;67.55
21980;BME280;11154;48.558;9.234;2023-06-05T00:19:52;97555.88;;;17.73;67.03
21980;BME280;11154;48.558;9.234;2023-06-05T00:21:54;97553.59;;;17.70;67.95
21980;BME280;11154;48.558;9.234;2023-06-05T00:23:56;97552.56;;;17.65;68.03
21980;BME280;11154;48.558;9.234;2023-06-05T00:25:57;97558.75;;;17.65;67.39
21980;BME280;11154;48.558;9.234;2023-06-05T00:27:59;97558.97;;;17.64;66.93
21980;BME280;11154;48.558;9.234;2023-06-05T00:30:03;97555.06;;;17.60;67.73
21980;BME280;11154;48.558;9.234;2023-06-05T00:32:05;97553.56;;;17.51;68.24
21980;BME280;11154;48.558;9.234;2023-06-05T00:34:06;97558.56;;;17.54;67.61
21980;BME280;11154;48.558;9.234;2023-06-05T00:36:08;97548.00;;;17.59;66.94
21980;BME280;11154;48.558;9.234;2023-06-05T00:38:10;97559.78;;;17.58;67.39
21980;BME280;11154;48.558;9.234;2023-06-05T00:40:12;97553.59;;;17.57;67.46
21980;BME280;11154;48.558;9.234;2023-06-05T00:42:14;97556.28;;;17.64;67.32
21980;BME280;11154;48.558;9.234;2023-06-05T00:44:17;97554.03;;;17.67;67.52
21980;BME280;11154;48.558;9.234;2023-06-05T00:46:21;97560.63;;;17.65;67.84
21980;BME280;11154;48.558;9.234;2023-06-05T00:48:22;97559.59;;;17.66;67.79
21980;BME280;11154;48.558;9.234;2023-06-05T00:50:24;97554.00;;;17.61;68.61
21980;BME280;11154;48.558;9.234;2023-06-05T00:52:27;97553.78;;;17.56;68.44
21980;BME280;11154;48.558;9.234;2023-06-05T00:54:29;97556.69;;;17.48;70.21
21980;BME280;11154;48.558;9.234;2023-06-05T00:56:31;97557.72;;;17.47;68.89
21980;BME280;11154;48.558;9.234;2023-06-05T00:58:35;97568.47;;;17.47;68.64
21980;BME280;11154;48.558;9.234;2023-06-05T01:00:37;97561.22;;;17.47;68.39
21980;BME280;11154;48.558;9.234;2023-06-05T01:02:41;97569.06;;;17.49;67.52
21980;BME280;11154;48.558;9.234;2023-06-05T01:04:42;97562.25;;;17.40;69.71
21980;BME280;11154;48.558;9.234;2023-06-05T01:06:44;97563.06;;;17.40;69.11
21980;BME280;11154;48.558;9.234;2023-06-05T01:08:46;97561.19;;;17.35;69.32
21980;BME280;11154;48.558;9.234;2023-06-05T01:10:48;97561.19;;;17.35;69.14
21980;BME280;11154;48.558;9.234;2023-06-05T01:12:56;97572.28;;;17.25;69.74
21980;BME280;11154;48.558;9.234;2023-06-05T01:15:01;97563.41;;;17.25;70.07
21980;BME280;11154;48.558;9.234;2023-06-05T01:17:07;97569.16;;;17.22;70.74
21980;BME280;11154;48.558;9.234;2023-06-05T01:19:13;97566.72;;;17.27;70.24
21980;BME280;11154;48.558;9.234;2023-06-05T01:21:15;97561.69;;;17.17;70.47
21980;BME280;11154;48.558;9.234;2023-06-05T01:23:18;97561.25;;;17.07;71.32
21980;BME280;11154;48.558;9.234;2023-06-05T01:25:25;97568.47;;;17.00;72.06
21980;BME280;11154;48.558;9.234;2023-06-05T01:27:33;97564.91;;;16.93;72.74
21980;BME280;11154;48.558;9.234;2023-06-05T01:29:41;97565.31;;;16.90;72.99
21980;BME280;11154;48.558;9.234;2023-06-05T01:31:46;97570.66;;;16.84;72.78
21980;BME280;11154;48.558;9.234;2023-06-05T01:33:52;97560.50;;;16.79;72.77
21980;BME280;11154;48.558;9.234;2023-06-05T01:35:57;97563.59;;;16.76;72.76
21980;BME280;11154;48.558;9.234;2023-06-05T01:38:05;97560.25;;;16.68;73.23
21980;BME280;11154;48.558;9.234;2023-06-05T01:40:13;97564.13;;;16.65;72.87
21980;BME280;11154;48.558;9.234;2023-06-05T01:42:15;97567.69;;;16.72;72.75
21980;BME280;11154;48.558;9.234;2023-06-05T01:44:16;97555.69;;;16.68;72.72
21980;BME280;11154;48.558;9.234;2023-06-05T01:46:21;97561.44;;;16.65;73.77
21980;BME280;11154;48.558;9.234;2023-06-05T01:48:24;97553.16;;;16.61;73.98
21980;BME280;11154;48.558;9.234;2023-06-05T01:50:33;97562.69;;;16.63;73.39
21980;BME280;11154;48.558;9.234;2023-06-05T01:52:36;97557.50;;;16.62;72.92
21980;BME280;11154;48.558;9.234;2023-06-05T01:54:40;97564.75;;;16.61;72.92
21980;BME280;11154;48.558;9.234;2023-06-05T01:56:44;97562.25;;;16.60;74.50
21980;BME280;11154;48.558;9.234;2023-06-05T01:58:48;97559.56;;;16.60;73.68
21980;BME280;11154;48.558;9.234;2023-06-05T02:00:49;97546.53;;;16.57;73.90
21980;BME280;11154;48.558;9.234;2023-06-05T02:02:52;97552.56;;;16.59;73.14
21980;BME280;11154;48.558;9.234;2023-06-05T02:04:54;97555.25;;;16.59;74.12
21980;BME280;11154;48.558;9.234;2023-06-05T02:06:59;97560.78;;;16.57;73.71
21980;BME280;11154;48.558;9.234;2023-06-05T02:09:05;97556.44;;;16.56;73.68
21980;BME280;11154;48.558;9.234;2023-06-05T02:11:09;97555.81;;;16.54;74.49
21980;BME280;11154;48.558;9.234;2023-06-05T02:13:12;97560.13;;;16.49;73.83
21980;BME280;11154;48.558;9.234;2023-06-05T02:15:15;97552.28;;;16.47;73.60
21980;BME280;11154;48.558;9.234;2023-06-05T02:17:17;97552.22;;;16.41;74.67
21980;BME280;11154;48.558;9.234;2023-06-05T02:19:19;97551.84;;;16.44;73.34
21980;BME280;11154;48.558;9.234;2023-06-05T02:21:21;97555.78;;;16.48;72.84
21980;BME280;11154;48.558;9.234;2023-06-05T02:23:22;97556.03;;;16.53;72.59
21980;BME280;11154;48.558;9.234;2023-06-05T02:25:25;97554.38;;;16.52;72.76
21980;BME280;11154;48.558;9.234;2023-06-05T02:27:27;97554.09;;;16.47;74.07
21980;BME280;11154;48.558;9.234;2023-06-05T02:29:30;97554.88;;;16.34;75.07
21980;BME280;11154;48.558;9.234;2023-06-05T02:31:33;97555.44;;;16.30;74.60
21980;BME280;11154;48.558;9.234;2023-06-05T02:33:35;97556.69;;;16.34;72.85
21980;BME280;11154;48.558;9.234;2023-06-05T02:35:36;97554.16;;;16.26;74.92
21980;BME280;11154;48.558;9.234;2023-06-05T02:37:40;97540.50;;;16.21;75.19
21980;BME280;11154;48.558;9.234;2023-06-05T02:39:43;97547.25;;;16.17;76.14
21980;BME280;11154;48.558;9.234;2023-06-05T02:41:45;97547.69;;;16.14;76.37
21980;BME280;11154;48.558;9.234;2023-06-05T02:43:47;97550.34;;;16.14;75.90
21980;BME280;11154;48.558;9.234;2023-06-05T02:45:50;97548.25;;;16.09;74.72
21980;BME280;11154;48.558;9.234;2023-06-05T02:47:51;97554.84;;;16.07;75.65
21980;BME280;11154;48.558;9.234;2023-06-05T02:49:54;97550.28;;;16.07;75.35
21980;BME280;11154;48.558;9.234;2023-06-05T02:51:55;97548.84;;;16.05;75.73
21980;BME280;11154;48.558;9.234;2023-06-05T02:53:57;97544.88;;;16.01;76.55
21980;BME280;11154;48.558;9.234;2023-06-05T02:55:59;97547.31;;;15.96;76.97
21980;BME280;11154;48.558;9.234;2023-06-05T02:58:01;97546.84;;;15.92;76.94
21980;BME280;11154;48.558;9.234;2023-06-05T03:00:04;97548.34;;;15.95;76.46
21980;BME280;11154;48.558;9.234;2023-06-05T03:02:10;97555.75;;;15.93;76.60
21980;BME280;11154;48.558;9.234;2023-06-05T03:04:12;97547.72;;;15.93;77.40
21980;BME280;11154;48.558;9.234;2023-06-05T03:06:13;97547.72;;;15.93;77.97
21980;BME280;11154;48.558;9.234;2023-06-05T03:08:17;97549.97;;;15.96;77.96
21980;BME280;11154;48.558;9.234;2023-06-05T03:10:19;97558.88;;;15.96;77.00
21980;BME280;11154;48.558;9.234;2023-06-05T03:12:21;97550.75;;;15.90;77.45
21980;BME280;11154;48.558;9.234;2023-06-05T03:14:23;97549.28;;;15.88;78.36
21980;BME280;11154;48.558;9.234;2023-06-05T03:16:26;97560.03;;;15.88;77.57
21980;BME280;11154;48.558;9.234;2023-06-05T03:18:34;97559.22;;;15.87;77.01
21980;BME280;11154;48.558;9.234;2023-06-05T03:20:36;97556.97;;;15.90;76.68
21980;BME280;11154;48.558;9.234;2023-06-05T03:22:38;97561.47;;;15.90;77.06
21980;BME280;11154;48.558;9.234;2023-06-05T03:24:40;97563.34;;;15.89;76.72
21980;BME280;11154;48.558;9.234;2023-06-05T03:26:42;97569.81;;;15.95;75.94
21980;BME280;11154;48.558;9.234;2023-06-05T03:28:44;97560.72;;;15.96;76.31
21980;BME280;11154;48.558;9.234;2023-06-05T03:30:48;97562.56;;;15.95;75.69
21980;BME280;11154;48.558;9.234;2023-06-05T03:32:49;97558.31;;;16.01;74.77
21980;BME280;11154;48.558;9.234;2023-06-05T03:34:52;97560.28;;;15.92;76.20
21980;BME280;11154;48.558;9.234;2023-06-05T03:36:54;97556.66;;;15.79;76.69
21980;BME280;11154;48.558;9.234;2023-06-05T03:38:59;97555.00;;;15.78;76.25
21980;BME280;11154;48.558;9.234;2023-06-05T03:41:00;97561.56;;;15.76;77.31
21980;BME280;11154;48.558;9.234;2023-06-05T03:43:02;97563.22;;;15.77;76.76
21980;BME280;11154;48.558;9.234;2023-06-05T03:45:04;97572.50;;;15.74;76.98
21980;BME280;11154;48.558;9.234;2023-06-05T03:47:06;97564.56;;;15.66;77.84
21980;BME280;11154;48.558;9.234;2023-06-05T03:49:08;97577.63;;;15.69;77.29
21980;BME280;11154;48.558;9.234;2023-06-05T03:51:11;97575.53;;;15.71;76.93
21980;BME280;11154;48.558;9.234;2023-06-05T03:53:13;97571.03;;;15.72;76.66
21980;BME280;11154;48.558;9.234;2023-06-05T03:55:15;97572.03;;;15.71;76.99
21980;BME280;11154;48.558;9.234;2023-06-05T03:57:17;97573.88;;;15.70;77.28
21980;BME280;11154;48.558;9.234;2023-06-05T03:59:20;97565.47;;;15.73;77.44
21980;BME280;11154;48.558;9.234;2023-06-05T04:01:23;97568.91;;;15.67;78.31
21980;BME280;11154;48.558;9.234;2023-06-05T04:03:24;97569.13;;;15.66;77.76
21980;BME280;11154;48.558;9.234;2023-06-05T04:05:27;97574.94;;;15.69;77.64
21980;BME280;11154;48.558;9.234;2023-06-05T04:07:30;97566.25;;;15.67;78.08
21980;BME280;11154;48.558;9.234;2023-06-05T04:09:32;97584.00;;;15.68;76.64
21980;BME280;11154;48.558;9.234;2023-06-05T04:11:34;97575.75;;;15.70;76.94
21980;BME280;11154;48.558;9.234;2023-06-05T04:13:35;97572.63;;;15.66;78.86
21980;BME280;11154;48.558;9.234;2023-06-05T04:15:37;97582.13;;;15.69;77.92
21980;BME280;11154;48.558;9.234;2023-06-05T04:17:38;97580.66;;;15.66;78.72
21980;BME280;11154;48.558;9.234;2023-06-05T04:19:40;97586.22;;;15.65;78.19
21980;BME280;11154;48.558;9.234;2023-06-05T04:21:42;97591.59;;;15.65;77.77
21980;BME280;11154;48.558;9.234;2023-06-05T04:23:45;97589.16;;;15.70;78.05
21980;BME280;11154;48.558;9.234;2023-06-05T04:25:46;97602.34;;;15.71;76.84
21980;BME280;11154;48.558;9.234;2023-06-05T04:27:50;97601.59;;;15.77;76.15
21980;BME280;11154;48.558;9.234;2023-06-05T04:29:52;97605.38;;;15.83;76.63
21980;BME280;11154;48.558;9.234;2023-06-05T04:31:54;97602.13;;;15.87;76.15
21980;BME280;11154;48.558;9.234;2023-06-05T04:33:56;97599.88;;;15.90;76.51
21980;BME280;11154;48.558;9.234;2023-06-05T04:35:58;97590.22;;;15.96;76.23
21980;BME280;11154;48.558;9.234;2023-06-05T04:37:59;97592.72;;;15.97;75.46
21980;BME280;11154;48.558;9.234;2023-06-05T04:40:04;97590.22;;;15.96;77.06
21980;BME280;11154;48.558;9.234;2023-06-05T04:42:06;97588.59;;;15.95;76.37
21980;BME280;11154;48.558;9.234;2023-06-05T04:44:09;97584.84;;;15.96;76.51
21980;BME280;11154;48.558;9.234;2023-06-05T04:46:11;97583.47;;;16.00;76.27
21980;BME280;11154;48.558;9.234;2023-06-05T04:48:12;97580.38;;;16.03;78.30
21980;BME280;11154;48.558;9.234;2023-06-05T04:50:22;97588.44;;;16.03;77.02
21980;BME280;11154;48.558;9.234;2023-06-05T04:52:25;97591.50;;;16.00;78.99
21980;BME280;11154;48.558;9.234;2023-06-05T04:54:29;97582.31;;;15.88;79.33
21980;BME280;11154;48.558;9.234;2023-06-05T04:56:33;97588.25;;;15.84;79.08
21980;BME280;11154;48.558;9.234;2023-06-05T04:58:34;97584.41;;;15.92;77.92
21980;BME280;11154;48.558;9.234;2023-06-05T05:00:37;97588.59;;;15.95;77.81
21980;BME280;11154;48.558;9.234;2023-06-05T05:02:39;97583.66;;;15.98;78.23
21980;BME280;11154;48.558;9.234;2023-06-05T05:04:41;97594.06;;;16.08;77.76
21980;BME280;11154;48.558;9.234;2023-06-05T05:06:43;97580.00;;;16.06;79.44
21980;BME280;11154;48.558;9.234;2023-06-05T05:08:48;97586.75;;;16.02;79.38
21980;BME280;11154;48.558;9.234;2023-06-05T05:10:49;97589.63;;;16.00;79.69
21980;BME280;11154;48.558;9.234;2023-06-05T05:12:52;97594.19;;;16.00;81.64
21980;BME280;11154;48.558;9.234;2023-06-05T05:14:54;97587.38;;;15.97;82.05
21980;BME280;11154;48.558;9.234;2023-06-05T05:16:56;97588.59;;;15.95;81.25
21980;BME280;11154;48.558;9.234;2023-06-05T05:18:57;97579.25;;;15.91;81.03
21980;BME280;11154;48.558;9.234;2023-06-05T05:20:59;97584.59;;;15.91;82.12
21980;BME280;11154;48.558;9.234;2023-06-05T05:23:01;97580.34;;;15.96;82.75
21980;BME280;11154;48.558;9.234;2023-06-05T05:25:03;97590.66;;;15.99;82.51
21980;BME280;11154;48.558;9.234;2023-06-05T05:27:04;97580.38;;;16.03;81.41
21980;BME280;11154;48.558;9.234;2023-06-05T05:29:07;97578.22;;;16.13;82.44
21980;BME280;11154;48.558;9.234;2023-06-05T05:31:09;97576.41;;;16.20;80.27
21980;BME280;11154;48.558;9.234;2023-06-05T05:33:11;97584.69;;;16.25;80.43
21980;BME280;11154;48.558;9.234;2023-06-05T05:35:12;97589.03;;;16.26;80.86
21980;BME280;11154;48.558;9.234;2023-06-05T05:37:14;97581.00;;;16.26;80.30
21980;BME280;11154;48.558;9.234;2023-06-05T05:39:15;97582.59;;;16.20;80.44
21980;BME280;11154;48.558;9.234;2023-06-05T05:41:17;97591.66;;;16.19;80.64
21980;BME280;11154;48.558;9.234;2023-06-05T05:43:19;97590.44;;;16.22;80.30
21980;BME280;11154;48.558;9.234;2023-06-05T05:45:23;97592.53;;;16.26;80.71
21980;BME280;11154;48.558;9.234;2023-06-05T05:47:24;97592.44;;;16.34;81.22
21980;BME280;11154;48.558;9.234;2023-06-05T05:49:26;97594.97;;;16.42;81.41
21980;BME280;11154;48.558;9.234;2023-06-05T05:51:27;97596.03;;;16.48;79.49
21980;BME280;11154;48.558;9.234;2023-06-05T05:53:29;97598.19;;;16.59;78.25
21980;BME280;11154;48.558;9.234;2023-06-05T05:55:31;97592.03;;;16.64;78.25
21980;BME280;11154;48.558;9.234;2023-06-05T05:57:32;97597.00;;;16.67;78.19
21980;BME280;11154;48.558;9.234;2023-06-05T05:59:34;97605.69;;;16.69;77.85
21980;BME280;11154;48.558;9.234;2023-06-05T06:01:37;97601.56;;;16.73;77.54
21980;BME280;11154;48.558;9.234;2023-06-05T06:03:39;97604.31;;;16.80;77.60
21980;BME280;11154;48.558;9.234;2023-06-05T06:05:40;97605.63;;;16.90;78.60
21980;BME280;11154;48.558;9.234;2023-06-05T06:07:43;97600.28;;;16.97;78.87
21980;BME280;11154;48.558;9.234;2023-06-05T06:09:44;97602.78;;;17.05;78.35
21980;BME280;11154;48.558;9.234;2023-06-05T06:11:46;97606.53;;;17.10;78.00
21980;BME280;11154;48.558;9.234;2023-06-05T06:13:48;97607.63;;;17.22;77.55
21980;BME280;11154;48.558;9.234;2023-06-05T06:15:50;97597.97;;;17.28;77.69
21980;BME280;11154;48.558;9.234;2023-06-05T06:17:53;97602.75;;;17.32;76.79
21980;BME280;11154;48.558;9.234;2023-06-05T06:19:55;97605.44;;;17.38;77.56
21980;BME280;11154;48.558;9.234;2023-06-05T06:21:57;97599.47;;;17.43;75.52
21980;BME280;11154;48.558;9.234;2023-06-05T06:23:59;97592.47;;;17.55;77.89
21980;BME280;11154;48.558;9.234;2023-06-05T06:26:01;97593.72;;;17.59;75.64
21980;BME280;11154;48.558;9.234;2023-06-05T06:28:06;97592.06;;;17.64;73.61
21980;BME280;11154;48.558;9.234;2023-06-05T06:30:08;97592.28;;;17.63;72.94
21980;BME280;11154;48.558;9.234;2023-06-05T06:32:10;97592.31;;;17.69;73.22
21980;BME280;11154;48.558;9.234;2023-06-05T06:34:13;97598.31;;;17.84;73.92
21980;BME280;11154;48.558;9.234;2023-06-05T06:36:15;97591.72;;;17.93;72.46
21980;BME280;11154;48.558;9.234;2023-06-05T06:38:17;97586.75;;;17.97;71.90
21980;BME280;11154;48.558;9.234;2023-06-05T06:40:19;97590.25;;;17.97;70.30
21980;BME280;11154;48.558;9.234;2023-06-05T06:42:21;97592.97;;;18.04;71.49
21980;BME280;11154;48.558;9.234;2023-06-05T06:44:23;97592.34;;;18.02;68.00
21980;BME280;11154;48.558;9.234;2023-06-05T06:46:24;97593.59;;;18.18;70.64
21980;BME280;11154;48.558;9.234;2023-06-05T06:48:26;97601.66;;;18.18;67.31
21980;BME280;11154;48.558;9.234;2023-06-05T06:50:29;97598.41;;;18.42;66.18
21980;BME280;11154;48.558;9.234;2023-06-05T06:52:31;97600.47;;;18.40;65.43
21980;BME280;11154;48.558;9.234;2023-06-05T06:54:32;97601.09;;;18.55;70.36
21980;BME280;11154;48.558;9.234;2023-06-05T06:56:34;97597.56;;;18.48;62.56
21980;BME280;11154;48.558;9.234;2023-06-05T06:58:37;97601.50;;;18.46;62.05
21980;BME280;11154;48.558;9.234;2023-06-05T07:00:38;97596.94;;;18.53;63.43
21980;BME280;11154;48.558;9.234;2023-06-05T07:02:41;97599.66;;;18.53;62.04
21980;BME280;11154;48.558;9.234;2023-06-05T07:04:44;97597.56;;;18.61;61.72
21980;BME280;11154;48.558;9.234;2023-06-05T07:06:47;97597.13;;;18.64;61.35
21980;BME280;11154;48.558;9.234;2023-06-05T07:08:49;97596.88;;;18.85;69.13
21980;BME280;11154;48.558;9.234;2023-06-05T07:10:51;97592.53;;;18.84;62.46
21980;BME280;11154;48.558;9.234;2023-06-05T07:12:54;97588.97;;;18.96;65.11
21980;BME280;11154;48.558;9.234;2023-06-05T07:14:56;97596.84;;;18.98;60.07
21980;BME280;11154;48.558;9.234;2023-06-05T07:16:57;97595.81;;;18.99;57.90
21980;BME280;11154;48.558;9.234;2023-06-05T07:19:00;97595.41;;;18.95;57.95
21980;BME280;11154;48.558;9.234;2023-06-05T07:21:03;97594.94;;;19.18;60.63
21980;BME280;11154;48.558;9.234;2023-06-05T07:23:06;97589.97;;;19.21;60.56
21980;BME280;11154;48.558;9.234;2023-06-05T07:25:08;97594.91;;;19.24;61.02
21980;BME280;11154;48.558;9.234;2023-06-05T07:27:12;97595.34;;;19.21;61.17
21980;BME280;11154;48.558;9.234;2023-06-05T07:29:14;97596.56;;;19.25;62.36
21980;BME280;11154;48.558;9.234;2023-06-05T07:31:15;97591.97;;;19.32;61.34
21980;BME280;11154;48.558;9.234;2023-06-05T07:33:17;97593.00;;;19.38;61.08
21980;BME280;11154;48.558;9.234;2023-06-05T07:35:20;97590.59;;;19.60;64.88
21980;BME280;11154;48.558;9.234;2023-06-05T07:37:23;97592.69;;;19.58;59.87
21980;BME280;11154;48.558;9.234;2023-06-05T07:39:27;97590.59;;;19.60;60.01
21980;BME280;11154;48.558;9.234;2023-06-05T07:41:28;97599.66;;;19.72;59.63
21980;BME280;11154;48.558;9.234;2023-06-05T07:43:30;97594.25;;;19.72;59.21
21980;BME280;11154;48.558;9.234;2023-06-05T07:45:31;97590.50;;;19.80;59.22
21980;BME280;11154;48.558;9.234;2023-06-05T07:47:33;97589.19;;;19.89;59.36
21980;BME280;11154;48.558;9.234;2023-06-05T07:49:35;97592.94;;;19.94;59.56
21980;BME280;11154;48.558;9.234;2023-06-05T07:51:36;97587.69;;;19.99;58.13
21980;BME280;11154;48.558;9.234;2023-06-05T07:53:38;97590.72;;;20.09;58.13
21980;BME280;11154;48.558;9.234;2023-06-05T07:55:41;97589.03;;;20.15;56.99
21980;BME280;11154;48.558;9.234;2023-06-05T07:57:43;97580.75;;;20.10;55.64
21980;BME280;11154;48.558;9.234;2023-06-05T07:59:45;97584.44;;;20.15;55.65
21980;BME280;11154;48.558;9.234;2023-06-05T08:01:47;97572.78;;;20.21;55.44
21980;BME280;11154;48.558;9.234;2023-06-05T08:03:49;97571.72;;;20.22;55.35
21980;BME280;11154;48.558;9.234;2023-06-05T08:05:51;97571.72;;;20.22;54.75
21980;BME280;11154;48.558;9.234;2023-06-05T08:07:52;97571.41;;;20.12;54.86
21980;BME280;11154;48.558;9.234;2023-06-05T08:09:55;97572.44;;;20.11;55.98
21980;BME280;11154;48.558;9.234;2023-06-05T08:11:58;97575.13;;;20.11;56.01
21980;BME280;11154;48.558;9.234;2023-06-05T08:14:00;97567.38;;;20.21;56.97
21980;BME280;11154;48.558;9.234;2023-06-05T08:16:04;97568.59;;;20.25;57.00
21980;BME280;11154;48.558;9.234;2023-06-05T08:18:05;97564.84;;;20.26;56.95
21980;BME280;11154;48.558;9.234;2023-06-05T08:20:08;97559.19;;;20.34;57.52
21980;BME280;11154;48.558;9.234;2023-06-05T08:22:11;97571.94;;;20.45;58.09
21980;BME280;11154;48.558;9.234;2023-06-05T08:24:14;97562.50;;;20.54;58.03
21980;BME280;11154;48.558;9.234;2023-06-05T08:26:18;97551.63;;;20.60;57.48
21980;BME280;11154;48.558;9.234;2023-06-05T08:28:21;97556.97;;;20.67;58.26
21980;BME280;11154;48.558;9.234;2023-06-05T08:30:23;97566.50;;;20.69;57.92
21980;BME280;11154;48.558;9.234;2023-06-05T08:32:25;97564.53;;;20.83;58.78
21980;BME280;11154;48.558;9.234;2023-06-05T08:34:26;97557.63;;;20.87;58.63
21980;BME280;11154;48.558;9.234;2023-06-05T08:36:28;97555.25;;;20.97;58.58
21980;BME280;11154;48.558;9.234;2023-06-05T08:38:33;97553.50;;;21.02;58.79
21980;BME280;11154;48.558;9.234;2023-06-05T08:40:36;97553.34;;;21.15;59.43
21980;BME280;11154;48.558;9.234;2023-06-05T08:42:40;97542.44;;;21.21;59.57
21980;BME280;11154;48.558;9.234;2023-06-05T08:44:43;97540.50;;;21.28;59.03
21980;BME280;11154;48.558;9.234;2023-06-05T08:46:48;97545.91;;;21.28;60.23
21980;BME280;11154;48.558;9.234;2023-06-05T08:48:50;97553.28;;;21.21;59.37
21980;BME280;11154;48.558;9.234;2023-06-05T08:50:53;97554.31;;;21.20;59.91
21980;BME280;11154;48.558;9.234;2023-06-05T08:52:58;97545.06;;;21.28;60.39
21980;BME280;11154;48.558;9.234;2023-06-05T08:55:00;97541.69;;;21.32;61.13
21980;BME280;11154;48.558;9.234;2023-06-05T08:57:03;97542.56;;;21.44;61.57
21980;BME280;11154;48.558;9.234;2023-06-05T08:59:05;97548.09;;;21.49;61.45
21980;BME280;11154;48.558;9.234;2023-06-05T09:01:09;97544.06;;;21.58;60.90
21980;BME280;11154;48.558;9.234;2023-06-05T09:03:11;97540.44;;;21.64;61.30
21980;BME280;11154;48.558;9.234;2023-06-05T09:05:15;97550.94;;;21.72;61.52
21980;BME280;11154;48.558;9.234;2023-06-05T09:07:18;97544.84;;;21.77;61.20
21980;BME280;11154;48.558;9.234;2023-06-05T09:09:19;97534.72;;;21.83;61.70
21980;BME280;11154;48.558;9.234;2023-06-05T09:11:22;97533.47;;;21.86;61.73
21980;BME280;11154;48.558;9.234;2023-06-05T09:13:24;97530.75;;;21.86;61.69
21980;BME280;11154;48.558;9.234;2023-06-05T09:15:26;97525.81;;;21.94;62.08
21980;BME280;11154;48.558;9.234;2023-06-05T09:17:29;97540.22;;;22.06;62.74
21980;BME280;11154;48.558;9.234;2023-06-05T09:19:35;97532.81;;;22.13;61.00
21980;BME280;11154;48.558;9.234;2023-06-05T09:21:38;97526.09;;;22.16;60.93
21980;BME280;11154;48.558;9.234;2023-06-05T09:23:40;97530.91;;;22.14;61.34
21980;BME280;11154;48.558;9.234;2023-06-05T09:25:45;97528.91;;;22.21;61.39
21980;BME280;11154;48.558;9.234;2023-06-05T09:28:05;97533.41;;;22.27;60.74
21980;BME280;11154;48.558;9.234;2023-06-05T09:30:07;97525.91;;;22.29;61.30
21980;BME280;11154;48.558;9.234;2023-06-05T09:32:16;97533.69;;;22.37;61.53
21980;BME280;11154;48.558;9.234;2023-06-05T09:34:29;97527.09;;;22.44;61.11
21980;BME280;11154;48.558;9.234;2023-06-05T09:36:31;97524.13;;;22.46;60.36
21980;BME280;11154;48.558;9.234;2023-06-05T09:38:35;97525.34;;;22.50;59.36
21980;BME280;11154;48.558;9.234;2023-06-05T09:40:37;97528.16;;;22.54;59.30
21980;BME280;11154;48.558;9.234;2023-06-05T09:42:39;97524.38;;;22.67;61.67
21980;BME280;11154;48.558;9.234;2023-06-05T09:44:40;97523.31;;;22.68;57.83
21980;BME280;11154;48.558;9.234;2023-06-05T09:46:52;97526.13;;;22.73;59.30
21980;BME280;11154;48.558;9.234;2023-06-05T09:48:58;97514.72;;;22.71;59.07
21980;BME280;11154;48.558;9.234;2023-06-05T09:51:09;97517.28;;;22.77;59.09
21980;BME280;11154;48.558;9.234;2023-06-05T09:53:15;97517.03;;;22.79;58.55
21980;BME280;11154;48.558;9.234;2023-06-05T09:55:17;97511.41;;;22.80;56.75
21980;BME280;11154;48.558;9.234;2023-06-05T09:57:19;97510.91;;;22.83;54.78
21980;BME280;11154;48.558;9.234;2023-06-05T09:59:21;97506.19;;;22.90;54.45
21980;BME280;11154;48.558;9.234;2023-06-05T10:01:23;97509.34;;;22.99;55.10
21980;BME280;11154;48.558;9.234;2023-06-05T10:03:28;97506.06;;;22.97;53.56
21980;BME280;11154;48.558;9.234;2023-06-05T10:05:30;97497.34;;;23.06;54.93
21980;BME280;11154;48.558;9.234;2023-06-05T10:07:36;97504.03;;;23.15;53.55
21980;BME280;11154;48.558;9.234;2023-06-05T10:09:39;97508.38;;;23.27;51.50
21980;BME280;11154;48.558;9.234;2023-06-05T10:11:42;97506.34;;;23.34;53.41
21980;BME280;11154;48.558;9.234;2023-06-05T10:13:44;97505.13;;;23.42;52.74
21980;BME280;11154;48.558;9.234;2023-06-05T10:15:47;97501.94;;;23.45;54.21
21980;BME280;11154;48.558;9.234;2023-06-05T10:17:50;97507.25;;;23.40;51.58
21980;BME280;11154;48.558;9.234;2023-06-05T10:19:52;97506.09;;;23.36;49.30
21980;BME280;11154;48.558;9.234;2023-06-05T10:21:54;97497.22;;;23.40;50.69
21980;BME280;11154;48.558;9.234;2023-06-05T10:24:01;97510.44;;;23.48;50.70
21980;BME280;11154;48.558;9.234;2023-06-05T10:26:12;97508.16;;;23.57;49.42
21980;BME280;11154;48.558;9.234;2023-06-05T10:28:34;97498.81;;;23.53;46.95
21980;BME280;11154;48.558;9.234;2023-06-05T10:33:43;97510.94;;;23.62;46.59
21980;BME280;11154;48.558;9.234;2023-06-05T10:35:51;97488.84;;;23.70;47.57
21980;BME280;11154;48.558;9.234;2023-06-05T10:38:06;97494.81;;;23.72;47.00
21980;BME280;11154;48.558;9.234;2023-06-05T10:40:16;97494.47;;;23.80;46.47
21980;BME280;11154;48.558;9.234;2023-06-05T10:42:24;97496.78;;;23.88;46.00
21980;BME280;11154;48.558;9.234;2023-06-05T10:44:38;97485.66;;;23.89;45.88
21980;BME280;11154;48.558;9.234;2023-06-05T10:46:40;97486.09;;;23.98;47.27
21980;BME280;11154;48.558;9.234;2023-06-05T10:49:07;97487.00;;;24.03;46.66
21980;BME280;11154;48.558;9.234;2023-06-05T10:51:33;97487.00;;;24.03;44.33
21980;BME280;11154;48.558;9.234;2023-06-05T10:53:46;97478.03;;;24.02;44.19
21980;BME280;11154;48.558;9.234;2023-06-05T10:55:49;97478.59;;;24.04;42.79